Coral Coast — WDF5120 — position and weather

sailwx.info

Track history (hours):
 
Tides and Currents Weather Stations Pressure Air Temp Water Temp Dewpoint Dewpoint Depression Visibility Wind Speed Wind Dir Waves Ship Positions

Coral Coast

Owner: Dann MarineTowing, LC., Chesapeake City, MD. More information available from US FCC via Universal Licensing System and Coast Guard Vessel Documentation Center.

Last reported at 2018-Jun-22 09:00 UTC. Time now 2018-Jun-22 09:20 UTC.
Position N 40°42' W 074°02'.

Length 70 m; draft 5.3 m.

Type: Tug. MMSI: 367459570.

Date/timePositionNaut miles runAvg speedWind from/ knotsBaromVisibWave heightAir tempDewpointWater temp
2018-Jun-22 09:00N 40°42' W 074°02'3 6.4
2018-Jun-22 08:30N 40°45' W 074°01'3 6.1
2018-Jun-22 08:00N 40°48' W 073°59'  
2018-Jun-19 04:01N 40°52' W 073°56'011.9
2018-Jun-19 04:00N 40°52' W 073°56'611.2
2018-Jun-19 03:30N 40°47' W 073°60'510.3
2018-Jun-19 03:00N 40°42' W 074°01'3 7.0
2018-Jun-19 02:30N 40°44' W 073°58'5 7.1
2018-Jun-19 01:46N 40°48' W 073°53'3 0.2
2018-Jun-18 09:19N 40°46' W 073°51'0 0.0
2018-Jun-18 08:50N 40°46' W 073°51'0 0.0
2018-Jun-18 08:30N 40°46' W 073°51'0 0.0
2018-Jun-18 08:00N 40°46' W 073°51'4 1.3
2018-Jun-18 04:54N 40°47' W 073°56'4 9.3
2018-Jun-18 04:30N 40°44' W 073°58'3 5.4
2018-Jun-18 04:00N 40°43' W 074°01'3 6.9
2018-Jun-18 03:30N 40°46' W 074°00'4 7.0
2018-Jun-18 03:00N 40°50' W 073°58'2 0.0
2018-Jun-16 00:01N 40°51' W 073°57'010.6
2018-Jun-16 00:00N 40°51' W 073°57'510.2
2018-Jun-15 23:30N 40°46' W 073°60'5 9.3
2018-Jun-15 23:00N 40°42' W 074°01'3 6.4
2018-Jun-15 22:30N 40°44' W 073°58'5 7.9
2018-Jun-15 21:50N 40°48' W 073°54'2 0.1
2018-Jun-15 03:38N 40°47' W 073°55'1 9.4
2018-Jun-15 03:30N 40°46' W 073°57'510.0
2018-Jun-15 03:00N 40°42' W 074°00'510.0
2018-Jun-15 02:30N 40°39' W 074°05'5 9.2
2018-Jun-15 02:00N 40°39' W 074°11'0 0.3
2018-Jun-15 00:47N 40°38' W 074°12'0 0.0
2018-Jun-15 00:24N 40°38' W 074°12'0 0.0
2018-Jun-15 00:00N 40°38' W 074°12'0 0.0
2018-Jun-14 23:29N 40°38' W 074°12'0 0.0
2018-Jun-14 22:42N 40°38' W 074°12'0 0.0
2018-Jun-14 21:57N 40°38' W 074°12'0 0.0
2018-Jun-14 21:28N 40°38' W 074°12'0 0.0
2018-Jun-14 20:47N 40°38' W 074°12'0 0.0
2018-Jun-14 20:29N 40°38' W 074°12'0 0.0
2018-Jun-14 20:00N 40°38' W 074°12'0 0.0
2018-Jun-14 19:30N 40°38' W 074°12'0 0.0
2018-Jun-14 18:51N 40°38' W 074°12'0 0.0
2018-Jun-14 18:30N 40°38' W 074°12'3 6.1
2018-Jun-14 18:00N 40°39' W 074°08'3 5.1
2018-Jun-14 17:30N 40°39' W 074°04'5 9.9
2018-Jun-14 17:00N 40°42' W 073°60'711.0
2018-Jun-14 16:19N 40°48' W 073°53'1 0.6
2018-Jun-14 14:22N 40°48' W 073°55'4 9.9
2018-Jun-14 14:00N 40°45' W 073°58'4 9.0
2018-Jun-14 13:30N 40°41' W 074°01'5 9.2
2018-Jun-14 13:00N 40°37' W 074°03'1 2.8
2018-Jun-14 12:30N 40°36' W 074°02'0 0.6
2018-Jun-14 12:00N 40°35' W 074°02'0 0.6
2018-Jun-14 11:30N 40°36' W 074°02'1 2.0
2018-Jun-14 11:00N 40°35' W 074°02'41 5.2
2018-Jun-14 03:13N 39°54' W 074°00'2 6.0
2018-Jun-14 02:50N 39°52' W 074°01'2 6.0
2018-Jun-14 02:29N 39°50' W 074°02'3 6.3
2018-Jun-14 02:00N 39°47' W 074°02'4 6.6
2018-Jun-14 01:28N 39°43' W 074°03'4 7.8
2018-Jun-14 00:55N 39°39' W 074°06'3 7.3
2018-Jun-14 00:26N 39°36' W 074°08'4 7.3
2018-Jun-13 23:57N 39°33' W 074°10'31 7.3
2018-Jun-13 19:38N 39°08' W 074°33'3 7.2
2018-Jun-13 19:15N 39°05' W 074°35'2 7.2
2018-Jun-13 18:58N 39°04' W 074°37'4 7.2
2018-Jun-13 18:22N 39°00' W 074°40'3 7.4
2018-Jun-13 17:58N 38°58' W 074°42'4 7.5
2018-Jun-13 17:28N 38°55' W 074°45'4 7.4
2018-Jun-13 17:00N 38°52' W 074°48'14 5.9
2018-Jun-13 14:43N 38°54' W 075°05'2 7.7
2018-Jun-13 14:30N 38°55' W 075°06'5 8.4
2018-Jun-13 13:57N 38°60' W 075°08'4 8.0
2018-Jun-13 13:30N 39°03' W 075°10'4 7.5
2018-Jun-13 13:00N 39°06' W 075°12'3 6.9
2018-Jun-13 12:30N 39°09' W 075°15'3 6.3
2018-Jun-13 12:00N 39°12' W 075°17'3 6.7
2018-Jun-13 11:30N 39°15' W 075°19'4 7.1
2018-Jun-13 11:00N 39°17' W 075°22'4 7.4
2018-Jun-13 10:30N 39°20' W 075°25'2 3.0
2018-Jun-13 10:00N 39°21' W 075°27'4 7.4
2018-Jun-13 09:30N 39°24' W 075°30'4 8.1
2018-Jun-13 09:00N 39°27' W 075°33'4 7.9
2018-Jun-13 08:31N 39°31' W 075°33'4 7.7
2018-Jun-13 08:00N 39°35' W 075°33'4 7.3
2018-Jun-13 07:30N 39°38' W 075°34'4 7.9
2018-Jun-13 07:00N 39°42' W 075°31'4 8.2
2018-Jun-13 06:30N 39°45' W 075°29'4 8.1
2018-Jun-13 06:00N 39°48' W 075°25'4 8.3
2018-Jun-13 05:30N 39°51' W 075°21'4 7.8
2018-Jun-13 05:00N 39°51' W 075°16'4 7.6
2018-Jun-13 04:30N 39°53' W 075°11'3 6.1
2018-Jun-13 04:00N 39°54' W 075°08'1 1.3
2018-Jun-13 03:30N 39°55' W 075°08'0 0.0
2018-Jun-13 03:00N 39°55' W 075°08'0 0.0
2018-Jun-13 02:30N 39°55' W 075°08'0 0.0
2018-Jun-13 02:00N 39°55' W 075°08'0 0.0
2018-Jun-13 01:30N 39°55' W 075°08'0 0.0
2018-Jun-13 01:00N 39°55' W 075°08'0 0.0
2018-Jun-13 00:30N 39°55' W 075°08'0 0.0
2018-Jun-13 00:00N 39°55' W 075°08'0 0.1
2018-Jun-12 23:30N 39°55' W 075°07'0 0.0
2018-Jun-12 23:00N 39°55' W 075°07'0 0.0
2018-Jun-12 22:30N 39°55' W 075°07'0 0.0
2018-Jun-12 22:00N 39°55' W 075°07'0 0.0
2018-Jun-12 21:30N 39°55' W 075°07'0 0.0
2018-Jun-12 21:00N 39°55' W 075°07'0 0.0
2018-Jun-12 20:30N 39°55' W 075°07'0 0.0
2018-Jun-12 20:00N 39°55' W 075°07'0 0.0
2018-Jun-12 19:30N 39°55' W 075°07'0 0.0
2018-Jun-12 19:00N 39°55' W 075°07'0 0.0
2018-Jun-12 18:30N 39°55' W 075°07'0 0.0
2018-Jun-12 18:01N 39°55' W 075°07'0 0.0
2018-Jun-12 17:30N 39°55' W 075°07'0 0.0
2018-Jun-12 17:00N 39°55' W 075°07'0 0.0
2018-Jun-12 16:30N 39°55' W 075°07'0 0.0
2018-Jun-12 16:00N 39°55' W 075°07'0 0.0
2018-Jun-12 15:30N 39°55' W 075°07'0 0.0
2018-Jun-12 15:00N 39°55' W 075°07'0 0.0
2018-Jun-12 14:30N 39°55' W 075°07'0 0.0
2018-Jun-12 14:01N 39°55' W 075°07'0 0.1
2018-Jun-12 13:30N 39°55' W 075°08'0 0.0
2018-Jun-12 13:00N 39°55' W 075°08'0 0.0
2018-Jun-12 12:30N 39°55' W 075°08'0 0.0
2018-Jun-12 12:00N 39°55' W 075°08'0 0.0
2018-Jun-12 11:31N 39°55' W 075°08'0 0.0
2018-Jun-12 11:00N 39°55' W 075°08'0 0.0
2018-Jun-12 10:31N 39°55' W 075°08'0 0.0
2018-Jun-12 10:01N 39°55' W 075°08'1 2.8
2018-Jun-12 09:30N 39°54' W 075°08'3 5.3
2018-Jun-12 09:01N 39°53' W 075°11'  
Track history (hours):
 
Tides and Currents Weather Stations Pressure Air Temp Water Temp Dewpoint Dewpoint Depression Visibility Wind Speed Wind Dir Waves Ship Positions

Coral Coast

Owner: Dann MarineTowing, LC., Chesapeake City, MD. More information available from US FCC via Universal Licensing System and Coast Guard Vessel Documentation Center.

Last reported at 2018-Jun-22 09:00 UTC. Time now 2018-Jun-22 09:20 UTC.
Position N 40°42' W 074°02'.

Length 70 m; draft 5.3 m.

Type: Tug. MMSI: 367459570.

Date/timePositionNaut miles runAvg speedWind from/ knotsBaromVisibWave heightAir tempDewpointWater temp
2018-Jun-22 09:00N 40°42' W 074°02'3 6.4
2018-Jun-22 08:30N 40°45' W 074°01'3 6.1
2018-Jun-22 08:00N 40°48' W 073°59'  
2018-Jun-19 04:01N 40°52' W 073°56'011.9
2018-Jun-19 04:00N 40°52' W 073°56'611.2
2018-Jun-19 03:30N 40°47' W 073°60'510.3
2018-Jun-19 03:00N 40°42' W 074°01'3 7.0
2018-Jun-19 02:30N 40°44' W 073°58'5 7.1
2018-Jun-19 01:46N 40°48' W 073°53'3 0.2
2018-Jun-18 09:19N 40°46' W 073°51'0 0.0
2018-Jun-18 08:50N 40°46' W 073°51'0 0.0
2018-Jun-18 08:30N 40°46' W 073°51'0 0.0
2018-Jun-18 08:00N 40°46' W 073°51'4 1.3
2018-Jun-18 04:54N 40°47' W 073°56'4 9.3
2018-Jun-18 04:30N 40°44' W 073°58'3 5.4
2018-Jun-18 04:00N 40°43' W 074°01'3 6.9
2018-Jun-18 03:30N 40°46' W 074°00'4 7.0
2018-Jun-18 03:00N 40°50' W 073°58'2 0.0
2018-Jun-16 00:01N 40°51' W 073°57'010.6
2018-Jun-16 00:00N 40°51' W 073°57'510.2
2018-Jun-15 23:30N 40°46' W 073°60'5 9.3
2018-Jun-15 23:00N 40°42' W 074°01'3 6.4
2018-Jun-15 22:30N 40°44' W 073°58'5 7.9
2018-Jun-15 21:50N 40°48' W 073°54'2 0.1
2018-Jun-15 03:38N 40°47' W 073°55'1 9.4
2018-Jun-15 03:30N 40°46' W 073°57'510.0
2018-Jun-15 03:00N 40°42' W 074°00'510.0
2018-Jun-15 02:30N 40°39' W 074°05'5 9.2
2018-Jun-15 02:00N 40°39' W 074°11'0 0.3
2018-Jun-15 00:47N 40°38' W 074°12'0 0.0
2018-Jun-15 00:24N 40°38' W 074°12'0 0.0
2018-Jun-15 00:00N 40°38' W 074°12'0 0.0
2018-Jun-14 23:29N 40°38' W 074°12'0 0.0
2018-Jun-14 22:42N 40°38' W 074°12'0 0.0
2018-Jun-14 21:57N 40°38' W 074°12'0 0.0
2018-Jun-14 21:28N 40°38' W 074°12'0 0.0
2018-Jun-14 20:47N 40°38' W 074°12'0 0.0
2018-Jun-14 20:29N 40°38' W 074°12'0 0.0
2018-Jun-14 20:00N 40°38' W 074°12'0 0.0
2018-Jun-14 19:30N 40°38' W 074°12'0 0.0
2018-Jun-14 18:51N 40°38' W 074°12'0 0.0
2018-Jun-14 18:30N 40°38' W 074°12'3 6.1
2018-Jun-14 18:00N 40°39' W 074°08'3 5.1
2018-Jun-14 17:30N 40°39' W 074°04'5 9.9
2018-Jun-14 17:00N 40°42' W 073°60'711.0
2018-Jun-14 16:19N 40°48' W 073°53'1 0.6
2018-Jun-14 14:22N 40°48' W 073°55'4 9.9
2018-Jun-14 14:00N 40°45' W 073°58'4 9.0
2018-Jun-14 13:30N 40°41' W 074°01'5 9.2
2018-Jun-14 13:00N 40°37' W 074°03'1 2.8
2018-Jun-14 12:30N 40°36' W 074°02'0 0.6
2018-Jun-14 12:00N 40°35' W 074°02'0 0.6
2018-Jun-14 11:30N 40°36' W 074°02'1 2.0
2018-Jun-14 11:00N 40°35' W 074°02'41 5.2
2018-Jun-14 03:13N 39°54' W 074°00'2 6.0
2018-Jun-14 02:50N 39°52' W 074°01'2 6.0
2018-Jun-14 02:29N 39°50' W 074°02'3 6.3
2018-Jun-14 02:00N 39°47' W 074°02'4 6.6
2018-Jun-14 01:28N 39°43' W 074°03'4 7.8
2018-Jun-14 00:55N 39°39' W 074°06'3 7.3
2018-Jun-14 00:26N 39°36' W 074°08'4 7.3
2018-Jun-13 23:57N 39°33' W 074°10'31 7.3
2018-Jun-13 19:38N 39°08' W 074°33'3 7.2
2018-Jun-13 19:15N 39°05' W 074°35'2 7.2
2018-Jun-13 18:58N 39°04' W 074°37'4 7.2
2018-Jun-13 18:22N 39°00' W 074°40'3 7.4
2018-Jun-13 17:58N 38°58' W 074°42'4 7.5
2018-Jun-13 17:28N 38°55' W 074°45'4 7.4
2018-Jun-13 17:00N 38°52' W 074°48'14 5.9
2018-Jun-13 14:43N 38°54' W 075°05'2 7.7
2018-Jun-13 14:30N 38°55' W 075°06'5 8.4
2018-Jun-13 13:57N 38°60' W 075°08'4 8.0
2018-Jun-13 13:30N 39°03' W 075°10'4 7.5
2018-Jun-13 13:00N 39°06' W 075°12'3 6.9
2018-Jun-13 12:30N 39°09' W 075°15'3 6.3
2018-Jun-13 12:00N 39°12' W 075°17'3 6.7
2018-Jun-13 11:30N 39°15' W 075°19'4 7.1
2018-Jun-13 11:00N 39°17' W 075°22'4 7.4
2018-Jun-13 10:30N 39°20' W 075°25'2 3.0
2018-Jun-13 10:00N 39°21' W 075°27'4 7.4
2018-Jun-13 09:30N 39°24' W 075°30'4 8.1
2018-Jun-13 09:00N 39°27' W 075°33'4 7.9
2018-Jun-13 08:31N 39°31' W 075°33'4 7.7
2018-Jun-13 08:00N 39°35' W 075°33'4 7.3
2018-Jun-13 07:30N 39°38' W 075°34'4 7.9
2018-Jun-13 07:00N 39°42' W 075°31'4 8.2
2018-Jun-13 06:30N 39°45' W 075°29'4 8.1
2018-Jun-13 06:00N 39°48' W 075°25'4 8.3
2018-Jun-13 05:30N 39°51' W 075°21'4 7.8
2018-Jun-13 05:00N 39°51' W 075°16'4 7.6
2018-Jun-13 04:30N 39°53' W 075°11'3 6.1
2018-Jun-13 04:00N 39°54' W 075°08'1 1.3
2018-Jun-13 03:30N 39°55' W 075°08'0 0.0
2018-Jun-13 03:00N 39°55' W 075°08'0 0.0
2018-Jun-13 02:30N 39°55' W 075°08'0 0.0
2018-Jun-13 02:00N 39°55' W 075°08'0 0.0
2018-Jun-13 01:30N 39°55' W 075°08'0 0.0
2018-Jun-13 01:00N 39°55' W 075°08'0 0.0
2018-Jun-13 00:30N 39°55' W 075°08'0 0.0
2018-Jun-13 00:00N 39°55' W 075°08'0 0.1
2018-Jun-12 23:30N 39°55' W 075°07'0 0.0
2018-Jun-12 23:00N 39°55' W 075°07'0 0.0
2018-Jun-12 22:30N 39°55' W 075°07'0 0.0
2018-Jun-12 22:00N 39°55' W 075°07'0 0.0
2018-Jun-12 21:30N 39°55' W 075°07'0 0.0
2018-Jun-12 21:00N 39°55' W 075°07'0 0.0
2018-Jun-12 20:30N 39°55' W 075°07'0 0.0
2018-Jun-12 20:00N 39°55' W 075°07'0 0.0
2018-Jun-12 19:30N 39°55' W 075°07'0 0.0
2018-Jun-12 19:00N 39°55' W 075°07'0 0.0
2018-Jun-12 18:30N 39°55' W 075°07'0 0.0
2018-Jun-12 18:01N 39°55' W 075°07'0 0.0
2018-Jun-12 17:30N 39°55' W 075°07'0 0.0
2018-Jun-12 17:00N 39°55' W 075°07'0 0.0
2018-Jun-12 16:30N 39°55' W 075°07'0 0.0
2018-Jun-12 16:00N 39°55' W 075°07'0 0.0
2018-Jun-12 15:30N 39°55' W 075°07'0 0.0
2018-Jun-12 15:00N 39°55' W 075°07'0 0.0
2018-Jun-12 14:30N 39°55' W 075°07'0 0.0
2018-Jun-12 14:01N 39°55' W 075°07'0 0.1
2018-Jun-12 13:30N 39°55' W 075°08'0 0.0
2018-Jun-12 13:00N 39°55' W 075°08'0 0.0
2018-Jun-12 12:30N 39°55' W 075°08'0 0.0
2018-Jun-12 12:00N 39°55' W 075°08'0 0.0
2018-Jun-12 11:31N 39°55' W 075°08'0 0.0
2018-Jun-12 11:00N 39°55' W 075°08'0 0.0
2018-Jun-12 10:31N 39°55' W 075°08'0 0.0
2018-Jun-12 10:01N 39°55' W 075°08'1 2.8
2018-Jun-12 09:30N 39°54' W 075°08'3 5.3
2018-Jun-12 09:01N 39°53' W 075°11'  

Dump ship's entire track history